createdAt,value
2022-09-14T00:20:00.031Z,6.22
2022-09-14T00:40:05.829Z,6.49
2022-09-14T01:00:11.576Z,6.50
2022-09-14T01:20:17.322Z,6.59
2022-09-14T01:40:23.188Z,7.39
2022-09-14T02:00:29.326Z,6.94
2022-09-14T02:20:35.502Z,7.35
2022-09-14T02:40:41.314Z,7.50
2022-09-14T03:01:24.194Z,7.36
2022-09-14T03:20:49.878Z,8.39
2022-09-14T03:40:55.642Z,8.25
2022-09-14T04:01:01.415Z,8.94
2022-09-14T04:21:08.255Z,8.60
2022-09-14T04:41:12.658Z,9.97
2022-09-14T05:01:18.528Z,9.89
2022-09-14T05:21:24.487Z,11.01
2022-09-14T05:41:30.252Z,9.67
2022-09-14T06:01:36.478Z,10.95
2022-09-14T06:21:42.227Z,12.90
2022-09-14T06:41:48.011Z,10.47
2022-09-14T07:01:53.771Z,10.64
2022-09-14T07:21:59.510Z,9.51
2022-09-14T07:42:05.323Z,8.71
2022-09-14T08:02:11.689Z,7.67
2022-09-14T08:22:17.382Z,8.94
2022-09-14T08:42:23.184Z,9.20
2022-09-14T09:02:28.923Z,8.72
2022-09-14T09:22:34.647Z,8.77
2022-09-14T09:42:40.941Z,8.77
2022-09-14T10:02:47.195Z,9.43
2022-09-14T10:22:52.996Z,8.26
2022-09-14T10:42:59.224Z,6.23
2022-09-14T11:03:05.454Z,3.74
2022-09-14T11:23:11.690Z,2.67
2022-09-14T11:43:17.964Z,2.19
2022-09-14T12:03:24.198Z,2.03
2022-09-14T12:23:30.354Z,1.87
2022-09-14T12:43:36.554Z,1.83
2022-09-14T13:03:42.788Z,1.81
2022-09-14T13:23:49.106Z,2.09
2022-09-14T13:43:55.205Z,1.85
2022-09-14T14:04:01.479Z,1.87
2022-09-14T14:24:13.120Z,1.88
2022-09-14T14:44:12.972Z,1.90
2022-09-14T15:04:18.715Z,2.13
2022-09-14T15:24:24.991Z,2.16
2022-09-14T15:44:31.168Z,2.48
2022-09-14T16:04:37.430Z,2.69
2022-09-14T16:24:43.628Z,1.72
2022-09-14T16:44:49.910Z,0.93
2022-09-14T17:04:55.728Z,1.61
2022-09-14T17:25:01.482Z,1.74
2022-09-14T17:45:07.251Z,1.82
2022-09-14T18:05:13.917Z,1.79
2022-09-14T18:25:21.821Z,1.66
2022-09-14T18:45:27.566Z,1.74
2022-09-14T19:05:33.379Z,1.69
2022-09-14T19:25:39.171Z,1.90
2022-09-14T19:45:44.993Z,1.78
2022-09-14T20:05:51.151Z,2.27
2022-09-14T20:25:57.341Z,2.95
2022-09-14T20:46:03.137Z,2.09
2022-09-14T21:06:08.853Z,1.91
2022-09-14T21:26:14.639Z,1.54
2022-09-14T21:46:20.476Z,1.59
2022-09-14T22:06:26.188Z,1.38
2022-09-14T22:26:31.928Z,1.49
2022-09-14T22:46:38.162Z,1.59
2022-09-14T23:06:43.984Z,1.55
2022-09-14T23:26:50.184Z,1.68
2022-09-14T23:46:56.428Z,1.82
